createdAt,value
2022-11-10T00:02:06.008Z,9.63
2022-11-10T00:06:11.441Z,9.65
2022-11-10T00:10:16.018Z,9.67
2022-11-10T00:14:36.655Z,9.67
2022-11-10T00:18:40.363Z,9.68
2022-11-10T00:22:45.308Z,9.66
2022-11-10T00:26:48.746Z,9.65
2022-11-10T00:30:52.708Z,9.64
2022-11-10T00:34:56.073Z,9.65
2022-11-10T00:39:00.707Z,9.65
2022-11-10T00:43:04.129Z,9.66
2022-11-10T00:47:21.923Z,9.67
2022-11-10T00:51:26.854Z,9.66
2022-11-10T00:55:32.012Z,9.66
2022-11-10T00:59:35.057Z,9.65
2022-11-10T01:03:39.178Z,9.62
2022-11-10T01:07:42.628Z,9.60
2022-11-10T01:11:47.112Z,9.56
2022-11-10T01:15:50.685Z,9.53
2022-11-10T01:19:54.231Z,9.47
2022-11-10T01:23:57.818Z,9.50
2022-11-10T01:28:02.993Z,9.50
2022-11-10T01:32:06.762Z,9.50
2022-11-10T01:36:11.947Z,9.49
2022-11-10T01:40:16.157Z,9.51
2022-11-10T01:44:23.175Z,9.56
2022-11-10T01:48:33.075Z,9.60
2022-11-10T01:52:37.723Z,9.64
2022-11-10T01:56:45.172Z,9.67
2022-11-10T02:00:49.718Z,9.71
2022-11-10T02:04:54.579Z,9.74
2022-11-10T02:09:00.163Z,9.75
2022-11-10T02:13:03.345Z,9.79
2022-11-10T02:17:08.305Z,9.80
2022-11-10T02:21:13.174Z,9.82
2022-11-10T02:25:20.807Z,9.83
2022-11-10T02:29:25.471Z,9.82
2022-11-10T02:33:29.022Z,9.86
2022-11-10T02:37:33.688Z,9.89
2022-11-10T02:41:37.196Z,9.90
2022-11-10T02:45:42.347Z,9.92
2022-11-10T02:49:46.375Z,9.96
2022-11-10T02:53:51.750Z,10.01
2022-11-10T02:57:55.154Z,10.05
2022-11-10T03:01:58.155Z,10.09
2022-11-10T03:06:02.172Z,10.11
2022-11-10T03:10:08.200Z,10.12
2022-11-10T03:14:11.906Z,10.12
2022-11-10T03:18:15.522Z,10.08
2022-11-10T03:22:18.843Z,10.07
2022-11-10T03:26:24.060Z,10.06
2022-11-10T03:30:28.062Z,10.04
2022-11-10T03:34:32.037Z,10.05
2022-11-10T03:38:35.676Z,10.05
2022-11-10T03:42:43.626Z,10.06
2022-11-10T03:46:51.279Z,10.07
2022-11-10T03:50:55.150Z,10.08
2022-11-10T03:55:03.138Z,10.08
2022-11-10T03:59:07.956Z,10.10
2022-11-10T04:03:11.482Z,10.11
2022-11-10T04:07:33.166Z,10.13
2022-11-10T04:11:53.631Z,10.16
2022-11-10T04:15:58.563Z,10.18
2022-11-10T04:20:04.164Z,10.19
2022-11-10T04:24:07.927Z,10.20
2022-11-10T04:28:11.382Z,10.22
2022-11-10T04:32:16.385Z,10.23
2022-11-10T04:36:21.386Z,10.24
2022-11-10T04:40:24.874Z,10.25
2022-11-10T04:44:28.005Z,10.26
2022-11-10T04:48:33.851Z,10.26
2022-11-10T04:52:37.311Z,10.27
2022-11-10T04:56:40.931Z,10.28
2022-11-10T05:00:44.889Z,10.30
2022-11-10T05:04:49.763Z,10.33
2022-11-10T05:08:53.231Z,10.31
2022-11-10T05:12:59.109Z,10.30
2022-11-10T05:17:02.523Z,10.30
2022-11-10T05:21:07.403Z,10.31
2022-11-10T05:25:10.994Z,10.33
2022-11-10T05:29:14.402Z,10.35
2022-11-10T05:33:17.927Z,10.38
2022-11-10T05:37:22.458Z,10.41
2022-11-10T05:41:26.037Z,10.43
2022-11-10T05:45:30.354Z,10.45
2022-11-10T05:49:33.941Z,10.47
2022-11-10T05:53:38.790Z,10.49
2022-11-10T05:57:44.248Z,10.51
2022-11-10T06:01:47.660Z,10.50
2022-11-10T06:05:52.673Z,10.51
2022-11-10T06:09:57.035Z,10.51
2022-11-10T06:14:01.566Z,10.50
2022-11-10T06:22:08.023Z,10.53
2022-11-10T06:26:13.446Z,10.49
2022-11-10T06:30:17.354Z,10.45
2022-11-10T06:34:22.567Z,10.41
2022-11-10T06:38:26.149Z,10.36
2022-11-10T06:42:30.528Z,10.34
2022-11-10T06:46:38.177Z,10.40
2022-11-10T06:50:44.832Z,10.44
2022-11-10T06:54:47.831Z,10.50
2022-11-10T06:58:52.711Z,10.54
2022-11-10T07:03:03.701Z,10.61
2022-11-10T07:07:06.843Z,10.67
2022-11-10T07:11:10.342Z,10.71
2022-11-10T07:15:16.398Z,10.76
2022-11-10T07:19:19.574Z,10.80
2022-11-10T07:23:23.605Z,10.84
2022-11-10T07:27:27.382Z,10.94
2022-11-10T07:31:31.748Z,11.01
2022-11-10T07:35:36.382Z,11.15
2022-11-10T07:39:39.678Z,11.27
2022-11-10T07:43:43.129Z,11.40
2022-11-10T07:47:47.984Z,11.58
2022-11-10T07:51:51.033Z,11.71
2022-11-10T07:55:55.356Z,11.85
2022-11-10T07:59:58.560Z,11.89
2022-11-10T08:04:03.087Z,12.06
2022-11-10T08:08:07.278Z,12.08
2022-11-10T08:12:10.840Z,12.18
2022-11-10T08:16:14.303Z,12.19
2022-11-10T08:20:19.628Z,12.25
2022-11-10T08:24:23.046Z,12.30
2022-11-10T08:28:26.819Z,12.33
2022-11-10T08:32:30.375Z,12.34
2022-11-10T08:36:34.918Z,12.42
2022-11-10T08:40:39.044Z,12.41
2022-11-10T08:44:42.500Z,12.44
2022-11-10T08:48:46.136Z,12.48
2022-11-10T08:52:50.950Z,12.52
2022-11-10T08:56:53.932Z,12.54
2022-11-10T09:00:58.217Z,12.59
2022-11-10T09:05:01.710Z,12.60
2022-11-10T09:09:07.386Z,12.63
2022-11-10T09:13:12.083Z,12.64
2022-11-10T09:17:15.588Z,12.66
2022-11-10T09:21:19.117Z,12.68
2022-11-10T09:25:24.118Z,12.68
2022-11-10T09:29:27.340Z,12.69
2022-11-10T09:33:31.021Z,12.71
2022-11-10T09:37:34.152Z,12.70
2022-11-10T09:41:42.209Z,12.75
2022-11-10T09:45:48.747Z,12.78
2022-11-10T09:49:55.690Z,12.85
2022-11-10T09:54:02.727Z,12.91
2022-11-10T09:58:07.658Z,12.99
2022-11-10T10:02:22.709Z,13.07
2022-11-10T10:06:30.584Z,13.17
2022-11-10T10:10:46.234Z,13.33
2022-11-10T10:15:11.985Z,13.47
2022-11-10T10:19:27.904Z,13.59
2022-11-10T10:24:07.052Z,13.68
2022-11-10T10:28:06.887Z,13.77
2022-11-10T10:32:15.258Z,13.83
2022-11-10T10:36:21.303Z,13.91
2022-11-10T10:40:25.842Z,13.98
2022-11-10T10:44:29.017Z,14.07
2022-11-10T10:48:33.659Z,14.17
2022-11-10T10:52:36.945Z,14.24
2022-11-10T10:56:40.573Z,14.32
2022-11-10T11:00:45.107Z,14.45
2022-11-10T11:04:49.989Z,14.61
2022-11-10T11:09:00.292Z,14.79
2022-11-10T11:13:16.200Z,15.06
2022-11-10T11:17:21.578Z,15.19
2022-11-10T11:21:35.719Z,15.28
2022-11-10T11:25:43.687Z,15.39
2022-11-10T11:30:04.209Z,15.57
2022-11-10T11:34:14.234Z,15.76
2022-11-10T11:38:30.875Z,15.95
2022-11-10T11:42:47.351Z,16.06
2022-11-10T11:47:01.903Z,16.10
2022-11-10T11:51:14.350Z,16.11
2022-11-10T11:55:33.086Z,16.10
2022-11-10T12:00:01.065Z,16.07
2022-11-10T12:04:23.069Z,15.98
2022-11-10T12:08:39.958Z,15.90
2022-11-10T12:13:06.892Z,15.87
2022-11-10T12:17:18.243Z,15.87
2022-11-10T12:21:26.661Z,15.90
2022-11-10T12:25:36.053Z,16.07
2022-11-10T12:29:45.784Z,16.32
2022-11-10T12:33:53.683Z,16.46
2022-11-10T12:38:03.324Z,16.48
2022-11-10T12:42:14.537Z,16.42
2022-11-10T12:46:19.523Z,16.33
2022-11-10T12:50:34.292Z,16.27
2022-11-10T12:54:37.772Z,16.19
2022-11-10T12:58:41.356Z,16.12
2022-11-10T13:02:48.033Z,16.05
2022-11-10T13:06:54.323Z,15.97
2022-11-10T13:11:02.076Z,15.89
2022-11-10T13:15:44.352Z,15.83
2022-11-10T13:19:53.966Z,15.78
2022-11-10T13:24:21.666Z,15.70
2022-11-10T13:28:57.488Z,15.60
2022-11-10T13:33:31.570Z,15.55
2022-11-10T13:37:58.745Z,15.55
2022-11-10T13:42:05.068Z,15.62
2022-11-10T13:46:08.645Z,15.76
2022-11-10T13:50:28.532Z,15.95
2022-11-10T13:55:02.082Z,16.14
2022-11-10T13:59:18.628Z,16.29
2022-11-10T14:03:54.866Z,16.39
2022-11-10T14:08:05.603Z,16.48
2022-11-10T14:12:29.989Z,16.54
2022-11-10T14:16:40.146Z,16.57
2022-11-10T14:20:45.771Z,16.60
2022-11-10T14:24:56.079Z,16.64
2022-11-10T14:29:21.885Z,16.67
2022-11-10T14:33:26.713Z,16.68
2022-11-10T14:37:31.692Z,16.72
2022-11-10T14:41:35.004Z,16.70
2022-11-10T14:45:41.805Z,16.66
2022-11-10T14:49:45.744Z,16.58
2022-11-10T14:53:50.847Z,16.47
2022-11-10T14:58:06.158Z,16.32
2022-11-10T15:02:16.774Z,16.14
2022-11-10T15:06:21.126Z,15.97
2022-11-10T15:10:26.944Z,15.76
2022-11-10T15:14:40.079Z,15.56
2022-11-10T15:18:45.695Z,15.31
2022-11-10T15:22:51.265Z,15.06
2022-11-10T15:26:54.781Z,14.80
2022-11-10T15:31:00.380Z,14.56
2022-11-10T15:35:25.794Z,14.31
2022-11-10T15:39:30.775Z,14.05
2022-11-10T15:43:33.881Z,13.84
2022-11-10T15:47:37.693Z,13.62
2022-11-10T15:51:43.607Z,13.42
2022-11-10T15:55:46.703Z,13.22
2022-11-10T15:59:50.476Z,13.04
2022-11-10T16:03:57.573Z,12.87
2022-11-10T16:08:02.098Z,12.74
2022-11-10T16:12:06.127Z,12.60
2022-11-10T16:16:13.567Z,12.49
2022-11-10T16:20:17.548Z,12.38
2022-11-10T16:24:22.792Z,12.28
2022-11-10T16:28:28.617Z,12.19
2022-11-10T16:32:31.682Z,12.09
2022-11-10T16:36:36.206Z,12.00
2022-11-10T16:40:41.037Z,11.91
2022-11-10T16:44:44.025Z,11.81
2022-11-10T16:48:49.002Z,11.76
2022-11-10T16:52:52.583Z,11.73
2022-11-10T16:56:56.942Z,11.71
2022-11-10T17:01:02.745Z,11.70
2022-11-10T17:05:06.851Z,11.66
2022-11-10T17:09:15.488Z,11.63
2022-11-10T17:13:20.625Z,11.59
2022-11-10T17:17:24.411Z,11.59
2022-11-10T17:21:32.918Z,11.59
2022-11-10T17:25:38.203Z,11.59
2022-11-10T17:29:42.748Z,11.56
2022-11-10T17:33:46.059Z,11.51
2022-11-10T17:37:52.842Z,11.49
2022-11-10T17:41:55.986Z,11.50
2022-11-10T17:46:00.960Z,11.53
2022-11-10T17:50:04.573Z,11.53
2022-11-10T17:54:13.687Z,11.56
2022-11-10T17:58:18.124Z,11.58
2022-11-10T18:02:22.548Z,11.62
2022-11-10T18:06:26.069Z,11.62
2022-11-10T18:10:29.056Z,11.59
2022-11-10T18:14:34.708Z,11.52
2022-11-10T18:18:39.247Z,11.44
2022-11-10T18:22:43.079Z,11.34
2022-11-10T18:26:46.705Z,11.24
2022-11-10T18:30:49.776Z,11.21
2022-11-10T18:34:54.931Z,11.20
2022-11-10T18:38:57.970Z,11.16
2022-11-10T18:43:07.157Z,11.12
2022-11-10T18:47:14.249Z,11.07
2022-11-10T18:51:19.545Z,11.02
2022-11-10T18:55:22.681Z,10.97
2022-11-10T18:59:26.224Z,10.90
2022-11-10T19:03:29.224Z,10.85
2022-11-10T19:07:34.060Z,10.78
2022-11-10T19:11:37.163Z,10.68
2022-11-10T19:15:42.010Z,10.56
2022-11-10T19:19:45.081Z,10.49
2022-11-10T19:23:50.620Z,10.44
2022-11-10T19:27:53.993Z,10.41
2022-11-10T19:31:58.023Z,10.36
2022-11-10T19:36:04.942Z,10.33
2022-11-10T19:40:11.945Z,10.30
2022-11-10T19:44:15.050Z,10.25
2022-11-10T19:48:18.616Z,10.22
2022-11-10T19:52:23.330Z,10.19
2022-11-10T19:56:31.683Z,10.18
2022-11-10T20:00:35.720Z,10.16
2022-11-10T20:05:00.121Z,10.15
2022-11-10T20:09:03.493Z,10.13
2022-11-10T20:13:08.910Z,10.12
2022-11-10T20:17:11.879Z,10.05
2022-11-10T20:21:17.350Z,9.99
2022-11-10T20:25:20.633Z,9.90
2022-11-10T20:29:26.021Z,9.82
2022-11-10T20:33:29.650Z,9.74
2022-11-10T20:37:34.504Z,9.69
2022-11-10T20:41:38.481Z,9.64
2022-11-10T20:45:44.184Z,9.62
2022-11-10T20:49:47.886Z,9.60
2022-11-10T20:53:51.085Z,9.55
2022-11-10T20:57:55.282Z,9.47
2022-11-10T21:02:00.406Z,9.40
2022-11-10T21:06:04.834Z,9.34
2022-11-10T21:10:08.869Z,9.27
2022-11-10T21:14:12.491Z,9.19
2022-11-10T21:18:17.152Z,9.12
2022-11-10T21:22:20.963Z,9.03
2022-11-10T21:26:28.672Z,8.96
2022-11-10T21:30:32.320Z,8.91
2022-11-10T21:34:37.071Z,8.88
2022-11-10T21:38:40.506Z,8.84
2022-11-10T21:42:43.436Z,8.84
2022-11-10T21:46:47.331Z,8.85
2022-11-10T21:50:52.063Z,8.85
2022-11-10T21:54:55.978Z,8.86
2022-11-10T21:58:59.182Z,8.86
2022-11-10T22:03:04.259Z,8.86
2022-11-10T22:07:24.651Z,8.87
2022-11-10T22:11:45.274Z,8.87
2022-11-10T22:16:05.967Z,8.87
2022-11-10T22:20:10.028Z,8.86
2022-11-10T22:24:27.982Z,8.83
2022-11-10T22:28:31.734Z,8.75
2022-11-10T22:32:34.836Z,8.66
2022-11-10T22:36:38.424Z,8.56
2022-11-10T22:41:00.507Z,8.49
2022-11-10T22:45:04.236Z,8.39
2022-11-10T22:49:09.328Z,8.34
2022-11-10T22:53:12.878Z,8.29
2022-11-10T22:57:17.207Z,8.25
2022-11-10T23:01:20.831Z,8.22
2022-11-10T23:05:23.929Z,8.20
2022-11-10T23:09:27.384Z,8.17
2022-11-10T23:13:32.453Z,8.16
2022-11-10T23:17:35.450Z,8.19
2022-11-10T23:21:38.874Z,8.25
2022-11-10T23:25:42.312Z,8.32
2022-11-10T23:29:46.713Z,8.41
2022-11-10T23:33:52.444Z,8.48
2022-11-10T23:37:55.428Z,8.49
2022-11-10T23:41:58.861Z,8.47
2022-11-10T23:46:07.707Z,8.43
2022-11-10T23:50:12.022Z,8.35
2022-11-10T23:54:15.093Z,8.25
2022-11-10T23:58:18.421Z,8.17
